sensor_id;sensor_type;location;lat;lon;timestamp;temperature;humidity
68511;SHT31;55512;50.102;19.958;2022-12-18T00:01:00;-1.50;70.71
68511;SHT31;55512;50.102;19.958;2022-12-18T00:03:32;-1.54;70.82
68511;SHT31;55512;50.102;19.958;2022-12-18T00:06:01;-1.58;70.88
68511;SHT31;55512;50.102;19.958;2022-12-18T00:08:27;-1.55;70.92
68511;SHT31;55512;50.102;19.958;2022-12-18T00:10:53;-1.50;70.90
68511;SHT31;55512;50.102;19.958;2022-12-18T00:13:19;-1.44;70.89
68511;SHT31;55512;50.102;19.958;2022-12-18T00:15:45;-1.38;70.83
68511;SHT31;55512;50.102;19.958;2022-12-18T00:18:10;-1.31;70.81
68511;SHT31;55512;50.102;19.958;2022-12-18T00:20:36;-1.25;70.76
68511;SHT31;55512;50.102;19.958;2022-12-18T00:23:04;-1.24;70.55
68511;SHT31;55512;50.102;19.958;2022-12-18T00:25:34;-1.30;70.42
68511;SHT31;55512;50.102;19.958;2022-12-18T00:28:02;-1.37;70.42
68511;SHT31;55512;50.102;19.958;2022-12-18T00:30:29;-1.43;70.41
68511;SHT31;55512;50.102;19.958;2022-12-18T00:32:54;-1.44;70.45
68511;SHT31;55512;50.102;19.958;2022-12-18T00:35:20;-1.44;70.40
68511;SHT31;55512;50.102;19.958;2022-12-18T00:37:46;-1.46;70.39
68511;SHT31;55512;50.102;19.958;2022-12-18T00:40:12;-1.49;70.40
68511;SHT31;55512;50.102;19.958;2022-12-18T00:42:38;-1.51;70.39
68511;SHT31;55512;50.102;19.958;2022-12-18T00:45:29;-1.51;70.24
68511;SHT31;55512;50.102;19.958;2022-12-18T00:47:56;-1.52;70.08
68511;SHT31;55512;50.102;19.958;2022-12-18T00:50:23;-1.53;69.98
68511;SHT31;55512;50.102;19.958;2022-12-18T00:52:50;-1.53;69.89
68511;SHT31;55512;50.102;19.958;2022-12-18T00:55:15;-1.54;69.86
68511;SHT31;55512;50.102;19.958;2022-12-18T00:57:41;-1.54;69.80
68511;SHT31;55512;50.102;19.958;2022-12-18T01:00:08;-1.53;69.67
68511;SHT31;55512;50.102;19.958;2022-12-18T01:02:38;-1.57;69.48
68511;SHT31;55512;50.102;19.958;2022-12-18T01:05:04;-1.59;69.40
68511;SHT31;55512;50.102;19.958;2022-12-18T01:07:30;-1.58;69.33
68511;SHT31;55512;50.102;19.958;2022-12-18T01:09:55;-1.62;69.23
68511;SHT31;55512;50.102;19.958;2022-12-18T01:12:21;-1.65;69.12
68511;SHT31;55512;50.102;19.958;2022-12-18T01:14:47;-1.69;69.02
68511;SHT31;55512;50.102;19.958;2022-12-18T01:17:12;-1.73;68.90
68511;SHT31;55512;50.102;19.958;2022-12-18T01:19:38;-1.74;68.99
68511;SHT31;55512;50.102;19.958;2022-12-18T01:22:03;-1.79;69.03
68511;SHT31;55512;50.102;19.958;2022-12-18T01:24:28;-1.80;69.16
68511;SHT31;55512;50.102;19.958;2022-12-18T01:26:54;-1.78;69.22
68511;SHT31;55512;50.102;19.958;2022-12-18T01:29:19;-1.78;69.30
68511;SHT31;55512;50.102;19.958;2022-12-18T01:31:45;-1.79;69.26
68511;SHT31;55512;50.102;19.958;2022-12-18T01:34:10;-1.81;69.23
68511;SHT31;55512;50.102;19.958;2022-12-18T01:36:37;-1.82;69.21
68511;SHT31;55512;50.102;19.958;2022-12-18T01:39:06;-1.84;69.21
68511;SHT31;55512;50.102;19.958;2022-12-18T01:41:36;-1.82;69.23
68511;SHT31;55512;50.102;19.958;2022-12-18T01:49:56;-1.82;68.98
68511;SHT31;55512;50.102;19.958;2022-12-18T01:52:26;-1.83;69.05
68511;SHT31;55512;50.102;19.958;2022-12-18T01:54:57;-1.78;69.14
68511;SHT31;55512;50.102;19.958;2022-12-18T01:57:25;-1.76;69.12
68511;SHT31;55512;50.102;19.958;2022-12-18T01:59:54;-1.74;69.08
68511;SHT31;55512;50.102;19.958;2022-12-18T02:02:27;-1.71;69.10
68511;SHT31;55512;50.102;19.958;2022-12-18T02:04:55;-1.70;69.03
68511;SHT31;55512;50.102;19.958;2022-12-18T02:10:20;-1.64;69.18
68511;SHT31;55512;50.102;19.958;2022-12-18T02:13:19;-1.64;69.20
68511;SHT31;55512;50.102;19.958;2022-12-18T02:16:02;-1.66;69.21
68511;SHT31;55512;50.102;19.958;2022-12-18T02:18:45;-1.66;69.26
68511;SHT31;55512;50.102;19.958;2022-12-18T02:21:55;-1.71;69.27
68511;SHT31;55512;50.102;19.958;2022-12-18T02:24:27;-1.70;69.24
68511;SHT31;55512;50.102;19.958;2022-12-18T02:27:28;-1.69;69.17
68511;SHT31;55512;50.102;19.958;2022-12-18T02:29:57;-1.66;69.11
68511;SHT31;55512;50.102;19.958;2022-12-18T02:32:30;-1.65;69.07
68511;SHT31;55512;50.102;19.958;2022-12-18T02:35:03;-1.63;69.10
68511;SHT31;55512;50.102;19.958;2022-12-18T02:37:31;-1.61;69.10
68511;SHT31;55512;50.102;19.958;2022-12-18T02:39:59;-1.55;69.10
68511;SHT31;55512;50.102;19.958;2022-12-18T02:42:28;-1.50;69.10
68511;SHT31;55512;50.102;19.958;2022-12-18T02:44:53;-1.47;69.07
68511;SHT31;55512;50.102;19.958;2022-12-18T02:47:20;-1.45;68.99
68511;SHT31;55512;50.102;19.958;2022-12-18T02:55:05;-1.34;68.88
68511;SHT31;55512;50.102;19.958;2022-12-18T02:57:58;-1.34;68.85
68511;SHT31;55512;50.102;19.958;2022-12-18T03:00:37;-1.32;68.89
68511;SHT31;55512;50.102;19.958;2022-12-18T03:03:18;-1.34;68.86
68511;SHT31;55512;50.102;19.958;2022-12-18T03:06:08;-1.32;68.95
68511;SHT31;55512;50.102;19.958;2022-12-18T03:08:44;-1.27;69.00
68511;SHT31;55512;50.102;19.958;2022-12-18T03:11:16;-1.22;69.06
68511;SHT31;55512;50.102;19.958;2022-12-18T03:14:02;-1.16;69.17
68511;SHT31;55512;50.102;19.958;2022-12-18T03:16:32;-1.11;69.20
68511;SHT31;55512;50.102;19.958;2022-12-18T03:19:03;-1.07;69.20
68511;SHT31;55512;50.102;19.958;2022-12-18T03:21:36;-1.06;69.23
68511;SHT31;55512;50.102;19.958;2022-12-18T03:24:10;-1.07;69.28
68511;SHT31;55512;50.102;19.958;2022-12-18T03:26:37;-1.07;69.32
68511;SHT31;55512;50.102;19.958;2022-12-18T03:32:19;-1.09;69.41
68511;SHT31;55512;50.102;19.958;2022-12-18T03:34:53;-1.10;69.44
68511;SHT31;55512;50.102;19.958;2022-12-18T03:37:24;-1.13;69.46
68511;SHT31;55512;50.102;19.958;2022-12-18T03:39:50;-1.19;69.54
68511;SHT31;55512;50.102;19.958;2022-12-18T03:42:17;-1.21;69.60
68511;SHT31;55512;50.102;19.958;2022-12-18T03:44:57;-1.23;69.67
68511;SHT31;55512;50.102;19.958;2022-12-18T03:47:55;-1.25;69.67
68511;SHT31;55512;50.102;19.958;2022-12-18T03:51:05;-1.31;69.71
68511;SHT31;55512;50.102;19.958;2022-12-18T03:56:09;-1.23;69.80
68511;SHT31;55512;50.102;19.958;2022-12-18T03:58:38;-1.16;69.78
68511;SHT31;55512;50.102;19.958;2022-12-18T04:01:08;-1.10;69.69
68511;SHT31;55512;50.102;19.958;2022-12-18T04:03:37;-1.06;69.60
68511;SHT31;55512;50.102;19.958;2022-12-18T04:06:04;-1.07;69.53
68511;SHT31;55512;50.102;19.958;2022-12-18T04:08:31;-1.05;69.60
68511;SHT31;55512;50.102;19.958;2022-12-18T04:10:59;-1.02;69.60
68511;SHT31;55512;50.102;19.958;2022-12-18T04:13:30;-1.03;69.50
68511;SHT31;55512;50.102;19.958;2022-12-18T04:16:00;-1.05;69.50
68511;SHT31;55512;50.102;19.958;2022-12-18T04:18:26;-1.09;69.50
68511;SHT31;55512;50.102;19.958;2022-12-18T04:20:52;-1.11;69.54
68511;SHT31;55512;50.102;19.958;2022-12-18T04:23:17;-1.16;69.60
68511;SHT31;55512;50.102;19.958;2022-12-18T04:25:43;-1.20;69.63
68511;SHT31;55512;50.102;19.958;2022-12-18T04:28:09;-1.19;69.70
68511;SHT31;55512;50.102;19.958;2022-12-18T04:30:34;-1.19;69.69
68511;SHT31;55512;50.102;19.958;2022-12-18T04:33:00;-1.26;69.70
68511;SHT31;55512;50.102;19.958;2022-12-18T04:35:25;-1.30;69.78
68511;SHT31;55512;50.102;19.958;2022-12-18T04:37:51;-1.29;69.82
68511;SHT31;55512;50.102;19.958;2022-12-18T04:40:16;-1.32;69.87
68511;SHT31;55512;50.102;19.958;2022-12-18T04:42:42;-1.33;69.90
68511;SHT31;55512;50.102;19.958;2022-12-18T04:45:08;-1.33;69.93
68511;SHT31;55512;50.102;19.958;2022-12-18T04:47:34;-1.34;69.99
68511;SHT31;55512;50.102;19.958;2022-12-18T04:49:59;-1.32;70.00
68511;SHT31;55512;50.102;19.958;2022-12-18T04:52:25;-1.28;70.00
68511;SHT31;55512;50.102;19.958;2022-12-18T04:54:51;-1.26;69.94
68511;SHT31;55512;50.102;19.958;2022-12-18T04:57:16;-1.24;69.93
68511;SHT31;55512;50.102;19.958;2022-12-18T04:59:43;-1.22;69.90
68511;SHT31;55512;50.102;19.958;2022-12-18T05:02:09;-1.24;69.84
68511;SHT31;55512;50.102;19.958;2022-12-18T05:04:35;-1.29;69.86
68511;SHT31;55512;50.102;19.958;2022-12-18T05:07:00;-1.29;69.90
68511;SHT31;55512;50.102;19.958;2022-12-18T05:09:26;-1.32;69.90
68511;SHT31;55512;50.102;19.958;2022-12-18T05:11:51;-1.32;69.94
68511;SHT31;55512;50.102;19.958;2022-12-18T05:14:17;-1.35;69.93
68511;SHT31;55512;50.102;19.958;2022-12-18T05:16:42;-1.42;69.95
68511;SHT31;55512;50.102;19.958;2022-12-18T05:19:07;-1.43;70.04
68511;SHT31;55512;50.102;19.958;2022-12-18T05:21:33;-1.42;70.10
68511;SHT31;55512;50.102;19.958;2022-12-18T05:23:59;-1.41;70.10
68511;SHT31;55512;50.102;19.958;2022-12-18T05:26:24;-1.39;70.10
68511;SHT31;55512;50.102;19.958;2022-12-18T05:28:50;-1.35;70.10
68511;SHT31;55512;50.102;19.958;2022-12-18T05:31:15;-1.32;70.09
68511;SHT31;55512;50.102;19.958;2022-12-18T05:33:41;-1.26;70.04
68511;SHT31;55512;50.102;19.958;2022-12-18T05:36:07;-1.21;69.98
68511;SHT31;55512;50.102;19.958;2022-12-18T05:38:34;-1.22;69.90
68511;SHT31;55512;50.102;19.958;2022-12-18T05:41:02;-1.24;69.90
68511;SHT31;55512;50.102;19.958;2022-12-18T05:43:28;-1.25;69.90
68511;SHT31;55512;50.102;19.958;2022-12-18T05:45:54;-1.25;69.88
68511;SHT31;55512;50.102;19.958;2022-12-18T05:48:20;-1.29;69.84
68511;SHT31;55512;50.102;19.958;2022-12-18T05:50:47;-1.31;69.90
68511;SHT31;55512;50.102;19.958;2022-12-18T05:53:15;-1.35;69.90
68511;SHT31;55512;50.102;19.958;2022-12-18T05:55:44;-1.39;69.94
68511;SHT31;55512;50.102;19.958;2022-12-18T05:58:11;-1.38;69.99
68511;SHT31;55512;50.102;19.958;2022-12-18T06:00:39;-1.41;69.94
68511;SHT31;55512;50.102;19.958;2022-12-18T06:03:10;-1.43;69.99
68511;SHT31;55512;50.102;19.958;2022-12-18T06:05:42;-1.41;70.00
68511;SHT31;55512;50.102;19.958;2022-12-18T06:08:10;-1.37;70.00
68511;SHT31;55512;50.102;19.958;2022-12-18T06:10:38;-1.32;70.00
68511;SHT31;55512;50.102;19.958;2022-12-18T06:13:04;-1.26;69.91
68511;SHT31;55512;50.102;19.958;2022-12-18T06:15:30;-1.23;69.90
68511;SHT31;55512;50.102;19.958;2022-12-18T06:17:56;-1.19;69.80
68511;SHT31;55512;50.102;19.958;2022-12-18T06:20:22;-1.18;69.77
68511;SHT31;55512;50.102;19.958;2022-12-18T06:22:48;-1.16;69.75
68511;SHT31;55512;50.102;19.958;2022-12-18T06:25:13;-1.14;69.70
68511;SHT31;55512;50.102;19.958;2022-12-18T06:27:39;-1.14;69.70
68511;SHT31;55512;50.102;19.958;2022-12-18T06:30:05;-1.10;69.70
68511;SHT31;55512;50.102;19.958;2022-12-18T06:32:35;-1.10;69.59
68511;SHT31;55512;50.102;19.958;2022-12-18T06:35:01;-1.15;69.53
68511;SHT31;55512;50.102;19.958;2022-12-18T06:37:26;-1.18;69.60
68511;SHT31;55512;50.102;19.958;2022-12-18T06:39:52;-1.20;69.60
68511;SHT31;55512;50.102;19.958;2022-12-18T06:42:18;-1.25;69.60
68511;SHT31;55512;50.102;19.958;2022-12-18T06:44:47;-1.28;69.65
68511;SHT31;55512;50.102;19.958;2022-12-18T06:47:12;-1.29;69.69
68511;SHT31;55512;50.102;19.958;2022-12-18T06:49:38;-1.30;69.69
68511;SHT31;55512;50.102;19.958;2022-12-18T06:52:03;-1.33;69.70
68511;SHT31;55512;50.102;19.958;2022-12-18T06:54:28;-1.32;69.71
68511;SHT31;55512;50.102;19.958;2022-12-18T06:56:54;-1.28;69.70
68511;SHT31;55512;50.102;19.958;2022-12-18T06:59:21;-1.27;69.68
68511;SHT31;55512;50.102;19.958;2022-12-18T07:01:46;-1.21;69.65
68511;SHT31;55512;50.102;19.958;2022-12-18T07:04:12;-1.17;69.60
68511;SHT31;55512;50.102;19.958;2022-12-18T07:06:37;-1.10;69.56
68511;SHT31;55512;50.102;19.958;2022-12-18T07:09:02;-1.03;69.49
68511;SHT31;55512;50.102;19.958;2022-12-18T07:11:28;-0.97;69.40
68511;SHT31;55512;50.102;19.958;2022-12-18T07:13:54;-0.97;69.26
68511;SHT31;55512;50.102;19.958;2022-12-18T07:16:20;-1.00;69.23
68511;SHT31;55512;50.102;19.958;2022-12-18T07:18:46;-1.00;69.23
68511;SHT31;55512;50.102;19.958;2022-12-18T07:21:14;-1.02;69.23
68511;SHT31;55512;50.102;19.958;2022-12-18T07:23:43;-1.06;69.24
68511;SHT31;55512;50.102;19.958;2022-12-18T07:26:11;-1.05;69.30
68511;SHT31;55512;50.102;19.958;2022-12-18T07:28:40;-1.03;69.23
68511;SHT31;55512;50.102;19.958;2022-12-18T07:31:13;-1.01;69.20
68511;SHT31;55512;50.102;19.958;2022-12-18T07:33:43;-1.00;69.19
68511;SHT31;55512;50.102;19.958;2022-12-18T07:36:10;-0.99;69.11
68511;SHT31;55512;50.102;19.958;2022-12-18T07:38:36;-1.01;69.10
68511;SHT31;55512;50.102;19.958;2022-12-18T07:41:06;-1.02;69.12
68511;SHT31;55512;50.102;19.958;2022-12-18T07:43:35;-1.01;69.13
68511;SHT31;55512;50.102;19.958;2022-12-18T07:46:01;-1.00;69.17
68511;SHT31;55512;50.102;19.958;2022-12-18T07:48:28;-0.98;69.12
68511;SHT31;55512;50.102;19.958;2022-12-18T07:50:57;-0.97;69.10
68511;SHT31;55512;50.102;19.958;2022-12-18T07:53:29;-0.95;69.10
68511;SHT31;55512;50.102;19.958;2022-12-18T07:55:56;-0.94;69.02
68511;SHT31;55512;50.102;19.958;2022-12-18T07:58:23;-0.93;68.98
68511;SHT31;55512;50.102;19.958;2022-12-18T08:00:49;-0.88;69.00
68511;SHT31;55512;50.102;19.958;2022-12-18T08:03:14;-0.80;68.98
68511;SHT31;55512;50.102;19.958;2022-12-18T08:05:40;-0.72;68.84
68511;SHT31;55512;50.102;19.958;2022-12-18T08:08:06;-0.70;68.66
68511;SHT31;55512;50.102;19.958;2022-12-18T08:10:31;-0.71;68.60
68511;SHT31;55512;50.102;19.958;2022-12-18T08:12:57;-0.68;68.60
68511;SHT31;55512;50.102;19.958;2022-12-18T08:15:22;-0.63;68.60
68511;SHT31;55512;50.102;19.958;2022-12-18T08:17:48;-0.57;68.54
68511;SHT31;55512;50.102;19.958;2022-12-18T08:20:14;-0.53;68.43
68511;SHT31;55512;50.102;19.958;2022-12-18T08:22:40;-0.51;68.37
68511;SHT31;55512;50.102;19.958;2022-12-18T08:25:07;-0.51;68.29
68511;SHT31;55512;50.102;19.958;2022-12-18T08:27:33;-0.50;68.28
68511;SHT31;55512;50.102;19.958;2022-12-18T08:29:59;-0.49;68.26
68511;SHT31;55512;50.102;19.958;2022-12-18T08:32:24;-0.47;68.20
68511;SHT31;55512;50.102;19.958;2022-12-18T08:34:51;-0.47;68.16
68511;SHT31;55512;50.102;19.958;2022-12-18T08:37:16;-0.47;68.09
68511;SHT31;55512;50.102;19.958;2022-12-18T08:39:42;-0.47;68.01
68511;SHT31;55512;50.102;19.958;2022-12-18T08:42:07;-0.47;68.00
68511;SHT31;55512;50.102;19.958;2022-12-18T08:44:51;-0.46;67.94
68511;SHT31;55512;50.102;19.958;2022-12-18T08:47:17;-0.42;67.90
68511;SHT31;55512;50.102;19.958;2022-12-18T08:49:42;-0.39;67.82
68511;SHT31;55512;50.102;19.958;2022-12-18T08:52:08;-0.36;67.70
68511;SHT31;55512;50.102;19.958;2022-12-18T08:54:34;-0.31;67.60
68511;SHT31;55512;50.102;19.958;2022-12-18T08:56:59;-0.25;67.43
68511;SHT31;55512;50.102;19.958;2022-12-18T08:59:25;-0.20;67.32
68511;SHT31;55512;50.102;19.958;2022-12-18T09:01:52;-0.17;67.27
68511;SHT31;55512;50.102;19.958;2022-12-18T09:04:20;-0.14;67.16
68511;SHT31;55512;50.102;19.958;2022-12-18T09:06:45;-0.15;67.10
68511;SHT31;55512;50.102;19.958;2022-12-18T09:09:11;-0.16;67.07
68511;SHT31;55512;50.102;19.958;2022-12-18T09:11:37;-0.20;66.92
68511;SHT31;55512;50.102;19.958;2022-12-18T09:14:02;-0.23;66.97
68511;SHT31;55512;50.102;19.958;2022-12-18T09:16:28;-0.25;66.91
68511;SHT31;55512;50.102;19.958;2022-12-18T09:18:55;-0.27;66.89
68511;SHT31;55512;50.102;19.958;2022-12-18T09:21:24;-0.30;66.80
68511;SHT31;55512;50.102;19.958;2022-12-18T09:23:54;-0.30;66.77
68511;SHT31;55512;50.102;19.958;2022-12-18T09:26:20;-0.31;66.70
68511;SHT31;55512;50.102;19.958;2022-12-18T09:28:47;-0.29;66.71
68511;SHT31;55512;50.102;19.958;2022-12-18T09:31:14;-0.32;66.59
68511;SHT31;55512;50.102;19.958;2022-12-18T09:33:41;-0.39;66.57
68511;SHT31;55512;50.102;19.958;2022-12-18T09:36:08;-0.40;66.67
68511;SHT31;55512;50.102;19.958;2022-12-18T09:38:36;-0.42;66.59
68511;SHT31;55512;50.102;19.958;2022-12-18T09:43:51;-0.39;66.65
68511;SHT31;55512;50.102;19.958;2022-12-18T09:46:25;-0.36;66.56
68511;SHT31;55512;50.102;19.958;2022-12-18T09:49:02;-0.34;66.48
68511;SHT31;55512;50.102;19.958;2022-12-18T09:51:47;-0.33;66.40
68511;SHT31;55512;50.102;19.958;2022-12-18T09:54:23;-0.34;66.30
68511;SHT31;55512;50.102;19.958;2022-12-18T09:56:57;-0.38;66.30
68511;SHT31;55512;50.102;19.958;2022-12-18T10:02:19;-0.37;66.30
68511;SHT31;55512;50.102;19.958;2022-12-18T10:13:34;-0.15;66.24
68511;SHT31;55512;50.102;19.958;2022-12-18T10:27:42;0.28;65.63
68511;SHT31;55512;50.102;19.958;2022-12-18T10:30:11;0.22;65.55
68511;SHT31;55512;50.102;19.958;2022-12-18T10:32:40;0.19;65.65
68511;SHT31;55512;50.102;19.958;2022-12-18T10:35:23;0.25;65.67
68511;SHT31;55512;50.102;19.958;2022-12-18T10:43:24;0.31;65.27
68511;SHT31;55512;50.102;19.958;2022-12-18T10:51:15;0.48;64.96
68511;SHT31;55512;50.102;19.958;2022-12-18T10:54:15;0.54;64.87
68511;SHT31;55512;50.102;19.958;2022-12-18T10:56:47;0.65;64.80
68511;SHT31;55512;50.102;19.958;2022-12-18T10:59:14;0.79;64.55
68511;SHT31;55512;50.102;19.958;2022-12-18T11:01:50;0.86;64.10
68511;SHT31;55512;50.102;19.958;2022-12-18T11:04:28;0.93;63.92
68511;SHT31;55512;50.102;19.958;2022-12-18T11:09:32;1.05;63.20
68511;SHT31;55512;50.102;19.958;2022-12-18T11:12:02;1.03;62.90
68511;SHT31;55512;50.102;19.958;2022-12-18T11:14:51;1.04;62.68
68511;SHT31;55512;50.102;19.958;2022-12-18T11:20:01;1.05;62.16
68511;SHT31;55512;50.102;19.958;2022-12-18T11:23:04;1.04;62.06
68511;SHT31;55512;50.102;19.958;2022-12-18T11:25:38;1.02;61.88
68511;SHT31;55512;50.102;19.958;2022-12-18T11:28:08;0.96;61.83
68511;SHT31;55512;50.102;19.958;2022-12-18T11:33:59;0.85;61.71
68511;SHT31;55512;50.102;19.958;2022-12-18T11:36:35;0.80;61.70
68511;SHT31;55512;50.102;19.958;2022-12-18T11:39:11;0.77;61.70
68511;SHT31;55512;50.102;19.958;2022-12-18T11:41:52;0.73;61.62
68511;SHT31;55512;50.102;19.958;2022-12-18T11:44:42;0.71;61.60
68511;SHT31;55512;50.102;19.958;2022-12-18T11:49:50;0.69;61.41
68511;SHT31;55512;50.102;19.958;2022-12-18T11:52:24;0.71;61.37
68511;SHT31;55512;50.102;19.958;2022-12-18T11:54:58;0.71;61.33
68511;SHT31;55512;50.102;19.958;2022-12-18T11:57:42;0.72;61.26
68511;SHT31;55512;50.102;19.958;2022-12-18T12:00:24;0.72;61.12
68511;SHT31;55512;50.102;19.958;2022-12-18T12:08:21;0.54;60.71
68511;SHT31;55512;50.102;19.958;2022-12-18T12:16:39;0.37;61.20
68511;SHT31;55512;50.102;19.958;2022-12-18T12:19:25;0.36;61.29
68511;SHT31;55512;50.102;19.958;2022-12-18T12:22:09;0.33;61.21
68511;SHT31;55512;50.102;19.958;2022-12-18T12:27:39;0.25;61.34
68511;SHT31;55512;50.102;19.958;2022-12-18T12:30:21;0.25;61.32
68511;SHT31;55512;50.102;19.958;2022-12-18T12:33:22;0.26;61.47
68511;SHT31;55512;50.102;19.958;2022-12-18T12:36:30;0.32;61.54
68511;SHT31;55512;50.102;19.958;2022-12-18T12:39:20;0.29;61.33
68511;SHT31;55512;50.102;19.958;2022-12-18T12:41:55;0.22;61.38
68511;SHT31;55512;50.102;19.958;2022-12-18T12:44:44;0.21;61.55
68511;SHT31;55512;50.102;19.958;2022-12-18T12:47:33;0.22;61.48
68511;SHT31;55512;50.102;19.958;2022-12-18T12:50:06;0.17;61.33
68511;SHT31;55512;50.102;19.958;2022-12-18T12:52:42;0.17;61.40
68511;SHT31;55512;50.102;19.958;2022-12-18T12:55:15;0.18;61.51
68511;SHT31;55512;50.102;19.958;2022-12-18T13:01:06;0.17;61.30
68511;SHT31;55512;50.102;19.958;2022-12-18T13:09:15;0.15;61.38
68511;SHT31;55512;50.102;19.958;2022-12-18T13:11:41;0.17;61.40
68511;SHT31;55512;50.102;19.958;2022-12-18T13:14:38;0.19;61.40
68511;SHT31;55512;50.102;19.958;2022-12-18T13:19:49;0.26;61.30
68511;SHT31;55512;50.102;19.958;2022-12-18T13:22:31;0.29;61.39
68511;SHT31;55512;50.102;19.958;2022-12-18T13:28:12;0.34;61.28
68511;SHT31;55512;50.102;19.958;2022-12-18T13:30:52;0.37;61.09
68511;SHT31;55512;50.102;19.958;2022-12-18T13:39:09;0.34;60.83
68511;SHT31;55512;50.102;19.958;2022-12-18T13:41:38;0.34;60.89
68511;SHT31;55512;50.102;19.958;2022-12-18T13:50:00;0.34;61.02
68511;SHT31;55512;50.102;19.958;2022-12-18T13:52:35;0.36;61.05
68511;SHT31;55512;50.102;19.958;2022-12-18T13:55:05;0.35;61.10
68511;SHT31;55512;50.102;19.958;2022-12-18T13:57:42;0.32;61.16
68511;SHT31;55512;50.102;19.958;2022-12-18T14:02:54;0.28;60.92
68511;SHT31;55512;50.102;19.958;2022-12-18T14:07:55;0.21;60.80
68511;SHT31;55512;50.102;19.958;2022-12-18T14:10:42;0.16;60.79
68511;SHT31;55512;50.102;19.958;2022-12-18T14:13:14;0.11;60.75
68511;SHT31;55512;50.102;19.958;2022-12-18T14:15:46;0.03;60.76
68511;SHT31;55512;50.102;19.958;2022-12-18T14:20:56;-0.19;60.71
68511;SHT31;55512;50.102;19.958;2022-12-18T14:23:26;-0.28;60.66
68511;SHT31;55512;50.102;19.958;2022-12-18T14:25:53;-0.39;60.59
68511;SHT31;55512;50.102;19.958;2022-12-18T14:28:19;-0.51;60.64
68511;SHT31;55512;50.102;19.958;2022-12-18T14:30:49;-0.59;60.73
68511;SHT31;55512;50.102;19.958;2022-12-18T14:33:21;-0.66;60.68
68511;SHT31;55512;50.102;19.958;2022-12-18T14:40:56;-0.95;60.93
68511;SHT31;55512;50.102;19.958;2022-12-18T14:43:23;-1.07;61.07
68511;SHT31;55512;50.102;19.958;2022-12-18T14:45:50;-1.17;61.17
68511;SHT31;55512;50.102;19.958;2022-12-18T14:48:33;-1.28;61.28
68511;SHT31;55512;50.102;19.958;2022-12-18T14:53:43;-1.49;61.54
68511;SHT31;55512;50.102;19.958;2022-12-18T14:56:22;-1.60;61.67
68511;SHT31;55512;50.102;19.958;2022-12-18T14:58:58;-1.74;61.79
68511;SHT31;55512;50.102;19.958;2022-12-18T15:01:35;-1.87;61.87
68511;SHT31;55512;50.102;19.958;2022-12-18T15:07:03;-2.15;62.08
68511;SHT31;55512;50.102;19.958;2022-12-18T15:09:30;-2.29;62.27
68511;SHT31;55512;50.102;19.958;2022-12-18T15:11:59;-2.41;62.39
68511;SHT31;55512;50.102;19.958;2022-12-18T15:16:55;-2.64;62.63
68511;SHT31;55512;50.102;19.958;2022-12-18T15:19:25;-2.74;62.77
68511;SHT31;55512;50.102;19.958;2022-12-18T15:22:02;-2.81;62.89
68511;SHT31;55512;50.102;19.958;2022-12-18T15:24:29;-2.86;62.86
68511;SHT31;55512;50.102;19.958;2022-12-18T15:26:57;-2.92;62.86
68511;SHT31;55512;50.102;19.958;2022-12-18T15:29:25;-2.98;62.90
68511;SHT31;55512;50.102;19.958;2022-12-18T15:34:40;-3.09;63.11
68511;SHT31;55512;50.102;19.958;2022-12-18T15:37:06;-3.18;63.26
68511;SHT31;55512;50.102;19.958;2022-12-18T15:39:33;-3.28;63.43
68511;SHT31;55512;50.102;19.958;2022-12-18T15:42:00;-3.34;63.61
68511;SHT31;55512;50.102;19.958;2022-12-18T15:44:45;-3.41;63.82
68511;SHT31;55512;50.102;19.958;2022-12-18T15:47:11;-3.45;63.90
68511;SHT31;55512;50.102;19.958;2022-12-18T15:49:38;-3.53;63.94
68511;SHT31;55512;50.102;19.958;2022-12-18T15:52:04;-3.60;64.00
68511;SHT31;55512;50.102;19.958;2022-12-18T15:54:31;-3.67;64.01
68511;SHT31;55512;50.102;19.958;2022-12-18T15:57:15;-3.77;64.10
68511;SHT31;55512;50.102;19.958;2022-12-18T15:59:52;-3.87;64.13
68511;SHT31;55512;50.102;19.958;2022-12-18T16:02:23;-3.93;64.27
68511;SHT31;55512;50.102;19.958;2022-12-18T16:04:50;-4.02;64.32
68511;SHT31;55512;50.102;19.958;2022-12-18T16:07:17;-4.11;64.44
68511;SHT31;55512;50.102;19.958;2022-12-18T16:09:43;-4.20;64.51
68511;SHT31;55512;50.102;19.958;2022-12-18T16:12:16;-4.24;64.60
68511;SHT31;55512;50.102;19.958;2022-12-18T16:14:46;-4.28;64.55
68511;SHT31;55512;50.102;19.958;2022-12-18T16:22:59;-4.37;64.80
68511;SHT31;55512;50.102;19.958;2022-12-18T16:25:25;-4.38;64.84
68511;SHT31;55512;50.102;19.958;2022-12-18T16:27:53;-4.41;64.90
68511;SHT31;55512;50.102;19.958;2022-12-18T16:30:25;-4.45;64.99
68511;SHT31;55512;50.102;19.958;2022-12-18T16:32:54;-4.47;65.14
68511;SHT31;55512;50.102;19.958;2022-12-18T16:35:20;-4.50;65.24
68511;SHT31;55512;50.102;19.958;2022-12-18T16:37:45;-4.59;65.31
68511;SHT31;55512;50.102;19.958;2022-12-18T16:40:13;-4.69;65.48
68511;SHT31;55512;50.102;19.958;2022-12-18T16:42:41;-4.74;65.60
68511;SHT31;55512;50.102;19.958;2022-12-18T16:45:11;-4.83;65.65
68511;SHT31;55512;50.102;19.958;2022-12-18T16:47:41;-4.88;65.80
68511;SHT31;55512;50.102;19.958;2022-12-18T16:50:06;-4.91;65.90
68511;SHT31;55512;50.102;19.958;2022-12-18T16:52:34;-4.90;65.93
68511;SHT31;55512;50.102;19.958;2022-12-18T16:55:00;-4.93;66.05
68511;SHT31;55512;50.102;19.958;2022-12-18T16:57:25;-4.92;66.10
68511;SHT31;55512;50.102;19.958;2022-12-18T16:59:52;-4.95;66.10
68511;SHT31;55512;50.102;19.958;2022-12-18T17:02:18;-4.95;66.10
68511;SHT31;55512;50.102;19.958;2022-12-18T17:04:47;-4.98;66.01
68511;SHT31;55512;50.102;19.958;2022-12-18T17:07:13;-4.99;66.00
68511;SHT31;55512;50.102;19.958;2022-12-18T17:09:40;-4.98;66.00
68511;SHT31;55512;50.102;19.958;2022-12-18T17:12:07;-4.97;66.00
68511;SHT31;55512;50.102;19.958;2022-12-18T17:14:34;-4.96;66.08
68511;SHT31;55512;50.102;19.958;2022-12-18T17:17:00;-4.95;66.18
68511;SHT31;55512;50.102;19.958;2022-12-18T17:19:26;-4.93;66.25
68511;SHT31;55512;50.102;19.958;2022-12-18T17:21:52;-4.91;66.31
68511;SHT31;55512;50.102;19.958;2022-12-18T17:24:19;-4.89;66.38
68511;SHT31;55512;50.102;19.958;2022-12-18T17:26:45;-4.87;66.38
68511;SHT31;55512;50.102;19.958;2022-12-18T17:29:13;-4.86;66.40
68511;SHT31;55512;50.102;19.958;2022-12-18T17:31:41;-4.83;66.45
68511;SHT31;55512;50.102;19.958;2022-12-18T17:34:08;-4.80;66.50
68511;SHT31;55512;50.102;19.958;2022-12-18T17:36:36;-4.80;66.49
68511;SHT31;55512;50.102;19.958;2022-12-18T17:39:03;-4.79;66.35
68511;SHT31;55512;50.102;19.958;2022-12-18T17:41:30;-4.80;66.14
68511;SHT31;55512;50.102;19.958;2022-12-18T17:43:57;-4.84;65.90
68511;SHT31;55512;50.102;19.958;2022-12-18T17:46:29;-4.87;65.83
68511;SHT31;55512;50.102;19.958;2022-12-18T17:48:57;-4.86;65.86
68511;SHT31;55512;50.102;19.958;2022-12-18T17:51:25;-4.87;65.89
68511;SHT31;55512;50.102;19.958;2022-12-18T17:53:51;-4.88;65.90